sim
Sign-in with your pilot id or email,
or register
Callsign
Passwort

Schedule Details

Flight Number: DLH2067 (3)
Departure: Hamburg Airport (EDDH) at 11:30
Arrival: Munich Airport (EDDM) at 12:45
Route: Lufthansa Passenger Schedule. Enter filed route here before submitting Pirep.

Weather Information
Getting current METAR information for EDDH 250420Z 14010KT 9999 BKN041 14/11 Q0995 NOSIG
Getting current METAR information for EDDM 250420Z 19006KT 9999 -RA SCT040 12/12 Q1001 NOSIG

Schedule Frequency

Route Map